createdAt,value
2023-05-10T00:00:26.560Z,10.45
2023-05-10T00:02:28.083Z,10.73
2023-05-10T00:04:29.624Z,9.05
2023-05-10T00:06:31.336Z,9.90
2023-05-10T00:08:33.026Z,8.88
2023-05-10T00:10:34.612Z,9.27
2023-05-10T00:12:36.067Z,7.05
2023-05-10T00:14:37.516Z,5.65
2023-05-10T00:16:39.016Z,4.43
2023-05-10T00:18:41.000Z,4.10
2023-05-10T00:20:42.469Z,3.78
2023-05-10T00:22:43.950Z,3.60
2023-05-10T00:24:45.430Z,3.50
2023-05-10T00:26:46.967Z,3.58
2023-05-10T00:28:48.437Z,3.10
2023-05-10T00:30:49.876Z,3.50
2023-05-10T00:32:52.671Z,2.63
2023-05-10T00:34:54.167Z,3.00
2023-05-10T00:36:55.759Z,2.65
2023-05-10T00:38:57.325Z,2.95
2023-05-10T00:40:58.793Z,3.13
2023-05-10T00:43:01.496Z,2.88
2023-05-10T00:45:03.093Z,2.67
2023-05-10T00:47:04.691Z,2.90
2023-05-10T00:49:06.979Z,2.60
2023-05-10T00:51:08.635Z,2.92
2023-05-10T00:53:11.202Z,2.83
2023-05-10T00:55:13.289Z,3.13
2023-05-10T00:57:14.918Z,2.65
2023-05-10T00:59:18.069Z,2.78
2023-05-10T01:01:20.553Z,2.95
2023-05-10T01:03:22.286Z,2.40
2023-05-10T01:05:24.005Z,2.53
2023-05-10T01:07:25.552Z,2.90
2023-05-10T01:09:27.403Z,2.38
2023-05-10T01:11:29.018Z,2.25
2023-05-10T01:13:37.218Z,3.00
2023-05-10T01:15:39.922Z,2.20
2023-05-10T01:17:44.822Z,2.65
2023-05-10T01:19:46.630Z,2.55
2023-05-10T01:22:03.117Z,2.25
2023-05-10T01:24:26.284Z,2.60
2023-05-10T01:27:02.838Z,2.55
2023-05-10T01:29:19.864Z,2.45
2023-05-10T01:31:39.906Z,3.33
2023-05-10T01:33:52.304Z,2.92
2023-05-10T01:36:00.189Z,2.90
2023-05-10T01:38:16.701Z,2.58
2023-05-10T01:40:31.347Z,2.75
2023-05-10T01:42:41.481Z,2.47
2023-05-10T01:44:54.782Z,2.63
2023-05-10T01:47:07.325Z,2.47
2023-05-10T01:49:31.898Z,2.70
2023-05-10T01:51:42.745Z,2.90
2023-05-10T01:53:47.254Z,2.78
2023-05-10T01:55:52.031Z,2.90
2023-05-10T01:58:10.033Z,2.85
2023-05-10T02:00:13.012Z,2.83
2023-05-10T02:02:16.403Z,2.80
2023-05-10T02:04:20.267Z,2.50
2023-05-10T02:06:24.612Z,2.70
2023-05-10T02:08:27.287Z,2.55
2023-05-10T02:10:30.083Z,2.63
2023-05-10T02:12:36.247Z,2.38
2023-05-10T02:14:38.290Z,2.42
2023-05-10T02:16:41.506Z,3.03
2023-05-10T02:18:43.751Z,2.40
2023-05-10T02:20:48.346Z,2.90
2023-05-10T02:22:53.267Z,2.80
2023-05-10T02:25:00.670Z,3.03
2023-05-10T02:27:04.348Z,2.63
2023-05-10T02:29:07.825Z,2.88
2023-05-10T02:31:11.539Z,2.67
2023-05-10T02:33:14.099Z,2.25
2023-05-10T02:35:16.263Z,3.05
2023-05-10T02:37:20.900Z,3.53
2023-05-10T02:39:23.439Z,2.88
2023-05-10T02:41:26.097Z,2.85
2023-05-10T02:43:31.288Z,2.70
2023-05-10T02:45:35.380Z,3.20
2023-05-10T02:47:36.910Z,3.00
2023-05-10T02:49:38.420Z,2.83
2023-05-10T02:51:44.453Z,3.00
2023-05-10T02:53:48.062Z,2.95
2023-05-10T02:55:53.141Z,2.95
2023-05-10T02:58:00.988Z,3.00
2023-05-10T03:00:04.310Z,3.35
2023-05-10T03:02:06.400Z,2.85
2023-05-10T03:04:08.199Z,3.10
2023-05-10T03:06:10.557Z,3.20
2023-05-10T03:08:12.385Z,4.20
2023-05-10T03:10:14.506Z,3.33
2023-05-10T03:12:47.527Z,3.33
2023-05-10T03:15:14.408Z,3.60
2023-05-10T03:17:30.437Z,3.60
2023-05-10T03:19:40.931Z,3.35
2023-05-10T03:21:48.602Z,3.50
2023-05-10T03:23:57.245Z,3.40
2023-05-10T03:28:02.733Z,3.67
2023-05-10T03:30:06.194Z,3.53
2023-05-10T03:32:08.011Z,3.75
2023-05-10T03:34:09.540Z,3.63
2023-05-10T03:36:11.482Z,3.45
2023-05-10T03:38:13.832Z,3.30
2023-05-10T03:40:15.562Z,3.67
2023-05-10T03:42:18.835Z,4.03
2023-05-10T03:44:20.396Z,3.75
2023-05-10T03:46:21.902Z,3.13
2023-05-10T03:48:23.418Z,4.15
2023-05-10T03:50:25.417Z,3.50
2023-05-10T03:52:27.016Z,3.20
2023-05-10T03:54:28.594Z,3.22
2023-05-10T03:56:30.070Z,3.67
2023-05-10T03:58:31.548Z,3.75
2023-05-10T04:00:33.553Z,3.70
2023-05-10T04:02:35.208Z,3.35
2023-05-10T04:04:36.816Z,3.50
2023-05-10T04:06:39.152Z,4.30
2023-05-10T04:08:40.705Z,4.00
2023-05-10T04:10:42.234Z,3.67
2023-05-10T04:12:43.690Z,3.63
2023-05-10T04:14:45.269Z,3.72
2023-05-10T04:16:46.756Z,4.13
2023-05-10T04:18:49.038Z,4.30
2023-05-10T04:20:50.541Z,4.07
2023-05-10T04:22:51.995Z,3.95
2023-05-10T04:24:53.438Z,4.00
2023-05-10T04:26:57.638Z,3.65
2023-05-10T04:28:59.434Z,4.00
2023-05-10T04:31:05.517Z,3.88
2023-05-10T04:33:07.280Z,4.20
2023-05-10T04:35:11.037Z,3.67
2023-05-10T04:37:12.802Z,3.83
2023-05-10T04:39:14.826Z,3.75
2023-05-10T04:41:16.323Z,3.92
2023-05-10T04:43:17.944Z,4.00
2023-05-10T04:45:19.509Z,4.28
2023-05-10T04:47:21.124Z,3.90
2023-05-10T04:49:22.781Z,4.97
2023-05-10T04:51:24.242Z,4.47
2023-05-10T04:53:25.709Z,3.97
2023-05-10T04:55:27.896Z,3.90
2023-05-10T04:57:29.402Z,4.25
2023-05-10T04:59:30.890Z,4.35
2023-05-10T05:01:32.397Z,3.92
2023-05-10T05:03:34.649Z,4.38
2023-05-10T05:05:36.244Z,4.18
2023-05-10T05:07:38.468Z,4.03
2023-05-10T05:09:39.957Z,4.25
2023-05-10T05:11:41.542Z,4.40
2023-05-10T05:13:42.995Z,4.65
2023-05-10T05:15:44.477Z,4.72
2023-05-10T05:17:46.029Z,4.82
2023-05-10T05:19:47.530Z,4.70
2023-05-10T05:21:49.089Z,4.40
2023-05-10T05:23:50.694Z,4.47
2023-05-10T05:25:53.583Z,4.80
2023-05-10T05:27:55.209Z,4.93
2023-05-10T05:29:57.441Z,4.30
2023-05-10T05:31:59.041Z,4.70
2023-05-10T05:34:00.690Z,4.93
2023-05-10T05:36:03.857Z,5.10
2023-05-10T05:38:05.473Z,5.20
2023-05-10T05:40:07.435Z,4.72
2023-05-10T05:42:10.220Z,5.70
2023-05-10T05:44:11.741Z,5.72
2023-05-10T05:46:13.280Z,5.53
2023-05-10T05:48:14.793Z,5.10
2023-05-10T05:50:16.372Z,5.40
2023-05-10T05:52:18.618Z,4.78
2023-05-10T05:54:20.228Z,5.25
2023-05-10T05:56:25.272Z,5.30
2023-05-10T05:58:26.983Z,5.57
2023-05-10T06:00:28.668Z,5.43
2023-05-10T06:02:30.384Z,5.10
2023-05-10T06:04:31.922Z,5.28
2023-05-10T06:06:33.433Z,5.38
2023-05-10T06:08:35.299Z,5.47
2023-05-10T06:10:37.242Z,4.95
2023-05-10T06:12:38.889Z,6.47
2023-05-10T06:14:40.367Z,5.30
2023-05-10T06:16:41.924Z,6.03
2023-05-10T06:18:43.432Z,6.65
2023-05-10T06:20:44.959Z,5.60
2023-05-10T06:22:46.544Z,6.00
2023-05-10T06:24:48.068Z,6.03
2023-05-10T06:26:50.952Z,5.90
2023-05-10T06:28:52.448Z,6.15
2023-05-10T06:30:53.952Z,6.47
2023-05-10T06:32:56.181Z,6.00
2023-05-10T06:34:57.703Z,6.65
2023-05-10T06:36:59.273Z,6.30
2023-05-10T06:39:00.744Z,5.95
2023-05-10T06:41:02.184Z,6.22
2023-05-10T06:43:03.640Z,6.28
2023-05-10T06:45:06.323Z,6.18
2023-05-10T06:47:07.801Z,8.70
2023-05-10T06:49:09.384Z,6.90
2023-05-10T06:51:11.049Z,6.13
2023-05-10T06:53:13.078Z,6.43
2023-05-10T06:55:14.701Z,6.03
2023-05-10T06:57:30.579Z,6.43
2023-05-10T06:59:33.401Z,6.55
2023-05-10T07:01:35.087Z,6.50
2023-05-10T07:03:36.653Z,6.43
2023-05-10T07:05:38.133Z,6.28
2023-05-10T07:07:39.780Z,6.38
2023-05-10T07:09:41.447Z,4.35
2023-05-10T07:11:42.916Z,4.70
2023-05-10T07:13:45.313Z,3.92
2023-05-10T07:15:46.793Z,3.13
2023-05-10T07:17:48.386Z,3.20
2023-05-10T07:19:49.921Z,2.85
2023-05-10T07:21:51.823Z,2.58
2023-05-10T07:23:53.313Z,2.30
2023-05-10T07:25:54.867Z,2.15
2023-05-10T07:27:56.312Z,2.38
2023-05-10T07:29:57.787Z,2.30
2023-05-10T07:31:59.367Z,2.30
2023-05-10T07:34:00.862Z,2.17
2023-05-10T07:36:02.450Z,2.17
2023-05-10T07:38:04.013Z,2.60
2023-05-10T07:40:06.152Z,2.80
2023-05-10T07:42:07.741Z,2.53
2023-05-10T07:44:09.254Z,2.63
2023-05-10T07:46:11.844Z,2.88
2023-05-10T07:48:13.461Z,2.80
2023-05-10T07:50:15.125Z,3.05
2023-05-10T07:52:16.664Z,3.35
2023-05-10T07:54:18.315Z,3.78
2023-05-10T07:56:30.606Z,3.35
2023-05-10T07:58:32.147Z,3.20
2023-05-10T08:00:33.759Z,2.70
2023-05-10T08:02:36.673Z,3.33
2023-05-10T08:04:38.240Z,2.80
2023-05-10T08:06:40.755Z,3.00
2023-05-10T08:08:42.946Z,3.30
2023-05-10T08:10:44.755Z,3.03
2023-05-10T08:12:46.264Z,3.25
2023-05-10T08:14:47.717Z,3.13
2023-05-10T08:16:49.231Z,3.75
2023-05-10T08:18:51.750Z,3.50
2023-05-10T08:20:53.284Z,3.67
2023-05-10T08:22:54.833Z,3.17
2023-05-10T08:24:56.360Z,3.50
2023-05-10T08:26:58.288Z,3.92
2023-05-10T08:28:59.773Z,4.45
2023-05-10T08:31:01.295Z,3.47
2023-05-10T08:33:02.819Z,3.38
2023-05-10T08:35:04.607Z,2.97
2023-05-10T08:37:06.191Z,3.15
2023-05-10T08:39:13.520Z,2.50
2023-05-10T08:41:22.343Z,2.80
2023-05-10T08:43:27.188Z,2.15
2023-05-10T08:45:33.177Z,2.63
2023-05-10T08:47:38.977Z,2.22
2023-05-10T08:49:41.669Z,1.98
2023-05-10T08:51:48.649Z,2.00
2023-05-10T08:53:50.486Z,1.60
2023-05-10T08:55:52.251Z,1.50
2023-05-10T08:57:54.593Z,1.40
2023-05-10T08:59:56.069Z,1.27
2023-05-10T09:02:00.068Z,1.30
2023-05-10T09:04:01.750Z,1.40
2023-05-10T09:06:03.661Z,1.50
2023-05-10T09:08:06.312Z,1.90
2023-05-10T09:10:09.089Z,1.67
2023-05-10T09:12:12.524Z,1.85
2023-05-10T09:14:15.957Z,1.85
2023-05-10T09:16:21.834Z,2.50
2023-05-10T09:18:25.568Z,2.35
2023-05-10T09:20:28.141Z,2.60
2023-05-10T09:22:29.792Z,2.60
2023-05-10T09:24:31.889Z,2.60
2023-05-10T09:26:34.191Z,2.50
2023-05-10T09:28:54.639Z,2.13
2023-05-10T09:30:56.760Z,2.30
2023-05-10T09:33:00.176Z,2.47
2023-05-10T09:35:17.202Z,3.20
2023-05-10T09:37:18.973Z,3.00
2023-05-10T09:39:20.978Z,3.28
2023-05-10T09:41:23.788Z,3.60
2023-05-10T09:43:25.356Z,3.47
2023-05-10T09:45:31.041Z,3.17
2023-05-10T09:47:36.919Z,3.20
2023-05-10T09:49:38.564Z,3.40
2023-05-10T09:51:40.030Z,2.70
2023-05-10T09:53:41.543Z,2.40
2023-05-10T09:55:46.996Z,2.55
2023-05-10T09:57:49.990Z,2.47
2023-05-10T09:59:51.763Z,2.20
2023-05-10T10:01:56.681Z,2.42
2023-05-10T10:03:59.204Z,2.20
2023-05-10T10:06:00.711Z,1.75
2023-05-10T10:08:05.300Z,1.30
2023-05-10T10:10:12.382Z,1.38
2023-05-10T10:12:14.006Z,1.60
2023-05-10T10:14:15.744Z,1.83
2023-05-10T10:16:17.359Z,1.92
2023-05-10T10:18:19.517Z,2.20
2023-05-10T10:20:22.862Z,2.25
2023-05-10T10:22:24.358Z,2.40
2023-05-10T10:24:25.943Z,2.58
2023-05-10T10:26:27.589Z,2.75
2023-05-10T10:28:49.981Z,2.40
2023-05-10T10:30:53.963Z,2.20
2023-05-10T10:33:05.563Z,2.40
2023-05-10T10:35:12.026Z,2.08
2023-05-10T10:37:13.574Z,2.20
2023-05-10T10:39:16.089Z,2.33
2023-05-10T10:41:32.983Z,2.95
2023-05-10T10:43:34.585Z,2.00
2023-05-10T10:45:41.952Z,1.92
2023-05-10T10:47:44.901Z,1.60
2023-05-10T10:49:50.668Z,1.52
2023-05-10T10:52:22.514Z,1.75
2023-05-10T10:54:30.275Z,1.67
2023-05-10T10:56:31.753Z,1.50
2023-05-10T10:58:34.339Z,1.70
2023-05-10T11:00:40.956Z,1.60
2023-05-10T11:02:43.119Z,1.40
2023-05-10T11:04:47.524Z,1.70
2023-05-10T11:06:49.226Z,1.42
2023-05-10T11:08:53.652Z,1.80
2023-05-10T11:11:04.607Z,1.35
2023-05-10T11:13:09.918Z,1.55
2023-05-10T11:15:11.581Z,1.42
2023-05-10T11:17:30.264Z,1.67
2023-05-10T11:19:31.861Z,1.83
2023-05-10T11:21:34.616Z,1.60
2023-05-10T11:23:48.044Z,1.67
2023-05-10T11:25:51.206Z,1.55
2023-05-10T11:27:52.948Z,1.85
2023-05-10T11:29:54.469Z,1.40
2023-05-10T11:31:58.948Z,1.50
2023-05-10T11:34:02.745Z,1.38
2023-05-10T11:36:04.338Z,1.80
2023-05-10T11:38:10.339Z,1.42
2023-05-10T11:40:12.518Z,1.05
2023-05-10T11:42:14.053Z,0.90
2023-05-10T11:44:15.765Z,0.80
2023-05-10T11:46:21.376Z,0.32
2023-05-10T11:48:24.844Z,0.20
2023-05-10T11:50:27.043Z,0.20
2023-05-10T11:52:28.557Z,0.10
2023-05-10T11:54:30.016Z,0.13
2023-05-10T11:56:33.823Z,0.20
2023-05-10T11:58:36.644Z,0.20
2023-05-10T12:00:38.372Z,0.20
2023-05-10T12:02:40.654Z,0.30
2023-05-10T12:04:42.828Z,0.30
2023-05-10T12:06:45.093Z,0.38
2023-05-10T12:08:48.299Z,0.38
2023-05-10T12:10:49.778Z,0.32
2023-05-10T12:12:53.468Z,0.57
2023-05-10T12:14:54.920Z,0.40
2023-05-10T12:16:58.482Z,0.30
2023-05-10T12:19:01.576Z,0.20
2023-05-10T12:21:05.259Z,0.28
2023-05-10T12:23:08.662Z,0.20
2023-05-10T12:25:11.257Z,0.15
2023-05-10T12:27:13.392Z,0.10
2023-05-10T12:29:21.234Z,0.20
2023-05-10T12:31:22.849Z,0.20
2023-05-10T12:33:24.566Z,0.20
2023-05-10T12:35:26.134Z,0.30
2023-05-10T12:37:29.295Z,0.20
2023-05-10T12:39:41.736Z,0.40
2023-05-10T12:41:43.738Z,0.30
2023-05-10T12:43:46.377Z,0.50
2023-05-10T12:45:49.771Z,0.50
2023-05-10T12:47:51.351Z,0.57
2023-05-10T12:49:52.843Z,0.60
2023-05-10T12:51:54.358Z,0.80
2023-05-10T12:53:56.498Z,0.88
2023-05-10T12:55:58.320Z,0.93
2023-05-10T12:57:59.782Z,1.00
2023-05-10T13:00:01.235Z,0.95
2023-05-10T13:02:02.771Z,1.50
2023-05-10T13:04:04.248Z,1.10
2023-05-10T13:06:06.537Z,1.10
2023-05-10T13:08:08.203Z,1.00
2023-05-10T13:10:09.914Z,1.10
2023-05-10T13:12:11.429Z,1.20
2023-05-10T13:14:12.945Z,1.00
2023-05-10T13:16:14.447Z,1.20
2023-05-10T13:18:16.187Z,1.50
2023-05-10T13:20:18.551Z,0.90
2023-05-10T13:22:28.689Z,1.23
2023-05-10T13:24:38.325Z,1.05
2023-05-10T13:26:39.808Z,0.90
2023-05-10T13:28:41.665Z,1.00
2023-05-10T13:30:43.516Z,0.80
2023-05-10T13:32:45.036Z,1.10
2023-05-10T13:34:46.492Z,1.10
2023-05-10T13:36:48.962Z,1.60
2023-05-10T13:38:50.485Z,1.17
2023-05-10T13:40:53.732Z,1.20
2023-05-10T13:42:55.459Z,1.20
2023-05-10T13:44:56.960Z,1.38
2023-05-10T13:46:58.770Z,1.27
2023-05-10T13:49:00.431Z,1.20
2023-05-10T13:51:01.917Z,1.20
2023-05-10T13:53:03.394Z,1.30
2023-05-10T13:55:05.313Z,1.30
2023-05-10T13:57:07.602Z,1.00
2023-05-10T13:59:09.206Z,1.33
2023-05-10T14:01:10.864Z,1.40
2023-05-10T14:03:12.743Z,1.10
2023-05-10T14:05:14.422Z,1.45
2023-05-10T14:07:15.956Z,1.10
2023-05-10T14:09:17.624Z,1.25
2023-05-10T14:11:19.134Z,1.20
2023-05-10T14:13:20.703Z,1.55
2023-05-10T14:15:22.267Z,1.20
2023-05-10T14:17:23.932Z,1.40
2023-05-10T14:19:25.472Z,1.00
2023-05-10T14:21:26.977Z,1.45
2023-05-10T14:23:29.647Z,1.23
2023-05-10T14:25:31.574Z,1.00
2023-05-10T14:27:33.344Z,1.25
2023-05-10T14:29:34.850Z,1.20
2023-05-10T14:31:36.383Z,0.93
2023-05-10T14:33:37.915Z,1.00
2023-05-10T14:35:39.458Z,0.93
2023-05-10T14:37:40.915Z,1.10
2023-05-10T14:39:43.331Z,1.20
2023-05-10T14:41:45.623Z,0.90
2023-05-10T14:43:47.163Z,1.00
2023-05-10T14:45:48.801Z,1.30
2023-05-10T14:47:51.226Z,0.90
2023-05-10T14:49:52.732Z,1.30
2023-05-10T14:51:54.294Z,1.25
2023-05-10T14:53:55.776Z,1.83
2023-05-10T14:55:57.251Z,1.33
2023-05-10T14:57:59.287Z,1.50
2023-05-10T15:00:01.438Z,1.20
2023-05-10T15:02:04.120Z,1.20
2023-05-10T15:04:06.183Z,1.10
2023-05-10T15:06:09.404Z,0.82
2023-05-10T15:08:11.038Z,0.73
2023-05-10T15:10:12.851Z,0.85
2023-05-10T15:12:14.357Z,0.63
2023-05-10T15:14:15.941Z,0.88
2023-05-10T15:16:17.445Z,1.10
2023-05-10T15:18:19.031Z,1.33
2023-05-10T15:20:20.565Z,2.10
2023-05-10T15:22:22.337Z,1.52
2023-05-10T15:24:23.817Z,1.50
2023-05-10T15:26:27.229Z,1.67
2023-05-10T15:28:28.692Z,1.70
2023-05-10T15:30:30.372Z,1.48
2023-05-10T15:32:31.959Z,1.48
2023-05-10T15:34:35.113Z,1.48
2023-05-10T15:36:38.468Z,1.30
2023-05-10T15:38:39.926Z,1.40
2023-05-10T15:40:41.532Z,1.50
2023-05-10T15:42:43.049Z,1.30
2023-05-10T15:44:45.547Z,1.85
2023-05-10T15:46:47.629Z,1.25
2023-05-10T15:48:49.115Z,1.13
2023-05-10T15:50:50.641Z,0.88
2023-05-10T15:52:52.168Z,1.27
2023-05-10T15:54:53.723Z,0.88
2023-05-10T15:56:55.480Z,0.90
2023-05-10T15:58:57.051Z,0.77
2023-05-10T16:00:58.611Z,0.80
2023-05-10T16:03:00.216Z,0.60
2023-05-10T16:05:01.981Z,0.70
2023-05-10T16:07:03.768Z,0.70
2023-05-10T16:09:05.242Z,0.73
2023-05-10T16:11:07.761Z,0.75
2023-05-10T16:13:09.270Z,0.80
2023-05-10T16:15:10.984Z,0.52
2023-05-10T16:17:12.890Z,0.80
2023-05-10T16:19:14.623Z,0.70
2023-05-10T16:21:16.492Z,1.00
2023-05-10T16:23:18.093Z,0.85
2023-05-10T16:25:19.756Z,0.88
2023-05-10T16:27:21.492Z,0.73
2023-05-10T16:29:23.018Z,0.75
2023-05-10T16:31:24.582Z,0.80
2023-05-10T16:33:26.107Z,0.95
2023-05-10T16:35:29.797Z,1.02
2023-05-10T16:37:31.258Z,0.88
2023-05-10T16:39:32.775Z,0.88
2023-05-10T16:41:34.655Z,0.98
2023-05-10T16:43:36.757Z,0.80
2023-05-10T16:45:38.283Z,1.05
2023-05-10T16:47:40.704Z,1.00
2023-05-10T16:49:42.288Z,1.10
2023-05-10T16:51:43.789Z,0.98
2023-05-10T16:53:45.258Z,0.88
2023-05-10T16:55:46.848Z,1.15
2023-05-10T16:57:49.440Z,0.77
2023-05-10T16:59:53.412Z,1.20
2023-05-10T17:01:55.049Z,1.30
2023-05-10T17:03:56.682Z,1.40
2023-05-10T17:05:59.028Z,1.20
2023-05-10T17:08:00.946Z,1.48
2023-05-10T17:10:02.443Z,1.10
2023-05-10T17:12:04.132Z,1.20
2023-05-10T17:14:05.634Z,1.30
2023-05-10T17:16:08.217Z,1.38
2023-05-10T17:18:10.580Z,1.10
2023-05-10T17:20:12.237Z,1.52
2023-05-10T17:22:14.209Z,1.30
2023-05-10T17:24:15.741Z,1.40
2023-05-10T17:26:17.318Z,1.70
2023-05-10T17:28:18.850Z,1.80
2023-05-10T17:30:26.028Z,1.40
2023-05-10T17:32:27.541Z,1.63
2023-05-10T17:34:29.136Z,1.52
2023-05-10T17:36:30.622Z,1.30
2023-05-10T17:38:32.085Z,1.30
2023-05-10T17:40:33.628Z,1.48
2023-05-10T17:42:35.162Z,1.30
2023-05-10T17:44:36.634Z,1.30
2023-05-10T17:46:38.165Z,1.55
2023-05-10T17:48:39.772Z,1.60
2023-05-10T17:50:44.562Z,1.40
2023-05-10T17:52:46.461Z,1.35
2023-05-10T17:54:48.184Z,1.35
2023-05-10T17:56:49.676Z,1.50
2023-05-10T17:58:51.200Z,1.38
2023-05-10T18:00:53.613Z,1.30
2023-05-10T18:02:55.205Z,1.55
2023-05-10T18:04:59.114Z,1.50
2023-05-10T18:07:01.848Z,1.25
2023-05-10T18:09:04.957Z,1.00
2023-05-10T18:11:06.489Z,1.35
2023-05-10T18:13:08.823Z,1.40
2023-05-10T18:15:10.873Z,1.35
2023-05-10T18:17:12.512Z,1.23
2023-05-10T18:19:14.254Z,1.30
2023-05-10T18:21:16.931Z,1.83
2023-05-10T18:23:18.668Z,1.55
2023-05-10T18:25:20.221Z,1.50
2023-05-10T18:27:21.935Z,1.52
2023-05-10T18:29:24.323Z,1.50
2023-05-10T18:31:25.898Z,1.40
2023-05-10T18:33:28.674Z,1.60
2023-05-10T18:35:30.315Z,1.30
2023-05-10T18:37:31.947Z,1.27
2023-05-10T18:39:34.073Z,1.42
2023-05-10T18:41:35.824Z,1.35
2023-05-10T18:43:37.320Z,1.58
2023-05-10T18:45:39.608Z,1.30
2023-05-10T18:47:41.274Z,1.20
2023-05-10T18:49:43.738Z,1.75
2023-05-10T18:51:45.327Z,1.55
2023-05-10T18:53:46.810Z,1.58
2023-05-10T18:55:56.963Z,1.85
2023-05-10T18:57:58.611Z,1.85
2023-05-10T19:00:00.240Z,1.60
2023-05-10T19:02:02.373Z,1.52
2023-05-10T19:04:03.974Z,1.67
2023-05-10T19:06:05.603Z,1.33
2023-05-10T19:08:07.652Z,1.38
2023-05-10T19:10:12.609Z,1.38
2023-05-10T19:12:14.339Z,1.25
2023-05-10T19:14:15.874Z,1.48
2023-05-10T19:16:23.450Z,1.40
2023-05-10T19:18:26.962Z,1.77
2023-05-10T19:20:29.830Z,1.60
2023-05-10T19:22:47.258Z,1.40
2023-05-10T19:24:53.519Z,1.48
2023-05-10T19:26:56.399Z,1.48
2023-05-10T19:28:58.009Z,1.42
2023-05-10T19:30:59.967Z,1.50
2023-05-10T19:33:04.146Z,1.70
2023-05-10T19:35:06.157Z,1.70
2023-05-10T19:37:07.678Z,2.08
2023-05-10T19:39:09.138Z,1.90
2023-05-10T19:41:11.536Z,2.10
2023-05-10T19:43:13.060Z,1.63
2023-05-10T19:45:15.830Z,1.65
2023-05-10T19:47:17.722Z,2.17
2023-05-10T19:49:19.317Z,1.70
2023-05-10T19:51:20.774Z,1.63
2023-05-10T19:53:22.234Z,1.80
2023-05-10T19:55:31.927Z,1.80
2023-05-10T19:57:33.390Z,1.85
2023-05-10T19:59:34.902Z,1.90
2023-05-10T20:01:36.643Z,2.33
2023-05-10T20:03:38.308Z,1.80
2023-05-10T20:05:40.335Z,2.10
2023-05-10T20:07:41.856Z,1.80
2023-05-10T20:09:44.349Z,2.03
2023-05-10T20:11:45.882Z,2.55
2023-05-10T20:13:47.390Z,2.30
2023-05-10T20:15:49.030Z,2.00
2023-05-10T20:17:52.876Z,2.00
2023-05-10T20:19:54.446Z,1.55
2023-05-10T20:21:57.705Z,1.75
2023-05-10T20:23:59.218Z,1.88
2023-05-10T20:26:00.722Z,2.15
2023-05-10T20:28:02.244Z,1.90
2023-05-10T20:30:04.608Z,1.90
2023-05-10T20:32:06.534Z,2.03
2023-05-10T20:34:08.025Z,2.15
2023-05-10T20:36:09.686Z,2.25
2023-05-10T20:38:11.177Z,2.30
2023-05-10T20:40:12.992Z,2.00
2023-05-10T20:42:14.466Z,2.20
2023-05-10T20:44:16.003Z,2.00
2023-05-10T20:46:17.590Z,2.50
2023-05-10T20:48:19.753Z,2.30
2023-05-10T20:50:21.222Z,2.85
2023-05-10T20:52:24.473Z,2.40
2023-05-10T20:54:26.126Z,2.30
2023-05-10T20:56:27.733Z,3.10
2023-05-10T20:58:29.194Z,2.22
2023-05-10T21:00:30.708Z,2.78
2023-05-10T21:02:32.223Z,2.60
2023-05-10T21:04:33.832Z,2.00
2023-05-10T21:06:35.333Z,2.53
2023-05-10T21:08:36.809Z,2.25
2023-05-10T21:10:38.289Z,2.17
2023-05-10T21:12:39.840Z,2.25
2023-05-10T21:14:43.002Z,2.60
2023-05-10T21:16:44.613Z,2.40
2023-05-10T21:18:46.105Z,2.03
2023-05-10T21:20:47.661Z,2.20
2023-05-10T21:22:49.132Z,2.63
2023-05-10T21:24:50.576Z,2.75
2023-05-10T21:26:52.111Z,3.45
2023-05-10T21:28:53.586Z,3.72
2023-05-10T21:30:55.145Z,2.78
2023-05-10T21:32:59.792Z,3.28
2023-05-10T21:35:01.760Z,3.03
2023-05-10T21:37:03.229Z,3.08
2023-05-10T21:39:04.897Z,3.50
2023-05-10T21:41:07.814Z,3.47
2023-05-10T21:43:09.621Z,3.05
2023-05-10T21:45:11.523Z,2.95
2023-05-10T21:47:13.009Z,3.20
2023-05-10T21:49:14.464Z,2.95
2023-05-10T21:51:15.980Z,2.88
2023-05-10T21:53:17.618Z,2.53
2023-05-10T21:55:19.446Z,2.83
2023-05-10T21:57:21.518Z,2.78
2023-05-10T21:59:23.344Z,2.92
2023-05-10T22:01:24.884Z,2.90
2023-05-10T22:03:26.444Z,2.60
2023-05-10T22:05:28.059Z,3.10
2023-05-10T22:07:33.182Z,3.70
2023-05-10T22:09:34.698Z,4.60
2023-05-10T22:11:36.255Z,3.60
2023-05-10T22:13:37.742Z,3.60
2023-05-10T22:15:39.506Z,3.55
2023-05-10T22:17:41.118Z,3.55
2023-05-10T22:19:42.793Z,4.05
2023-05-10T22:21:44.463Z,3.88
2023-05-10T22:23:46.088Z,4.13
2023-05-10T22:25:47.556Z,4.90
2023-05-10T22:27:49.059Z,5.25
2023-05-10T22:29:50.624Z,4.60
2023-05-10T22:31:52.135Z,3.75
2023-05-10T22:33:53.615Z,4.05
2023-05-10T22:35:55.122Z,4.18
2023-05-10T22:37:56.652Z,4.80
2023-05-10T22:39:58.100Z,4.00
2023-05-10T22:41:59.589Z,4.22
2023-05-10T22:44:02.117Z,4.05
2023-05-10T22:46:03.729Z,4.40
2023-05-10T22:48:05.484Z,4.72
2023-05-10T22:50:07.646Z,4.10
2023-05-10T22:52:09.714Z,4.32
2023-05-10T22:54:11.220Z,4.05
2023-05-10T22:56:13.722Z,4.60
2023-05-10T22:58:15.335Z,4.38
2023-05-10T23:00:17.630Z,3.83
2023-05-10T23:02:19.323Z,4.13
2023-05-10T23:04:21.427Z,4.65
2023-05-10T23:06:22.924Z,4.40
2023-05-10T23:08:24.440Z,4.40
2023-05-10T23:10:25.938Z,4.80
2023-05-10T23:12:28.194Z,5.20
2023-05-10T23:14:30.242Z,4.70
2023-05-10T23:16:31.853Z,5.00
2023-05-10T23:18:33.636Z,5.20
2023-05-10T23:20:35.926Z,5.38
2023-05-10T23:22:37.473Z,4.80
2023-05-10T23:24:39.227Z,4.90
2023-05-10T23:26:40.821Z,4.75
2023-05-10T23:28:42.330Z,5.50
2023-05-10T23:30:43.780Z,5.32
2023-05-10T23:32:45.343Z,4.97
2023-05-10T23:34:46.809Z,4.50
2023-05-10T23:36:48.278Z,4.53
2023-05-10T23:38:49.762Z,4.53
2023-05-10T23:40:51.547Z,4.72
2023-05-10T23:42:53.084Z,5.05
2023-05-10T23:44:54.641Z,5.07
2023-05-10T23:46:56.106Z,5.25
2023-05-10T23:48:57.553Z,5.45
2023-05-10T23:50:59.040Z,7.75
2023-05-10T23:53:00.482Z,6.63
2023-05-10T23:55:02.150Z,5.50
2023-05-10T23:57:03.671Z,5.68
2023-05-10T23:59:05.983Z,6.10
